Wetterstation Vordersexau
Wetterdaten: Dezember 2014
Datum Temp. A. Feuchte A. Luftdruck Regen Wind Richtung Taupunkt Windchill Windben
01.12.2014 3,9 C 86 % 976,7 hPa 0,6 l/m 0,0 km/h N-NO 1,8 C 3,9 C 0,0 km/h
02.12.2014 3,1 C 83 % 980,7 hPa 0,6 l/m 0,1 km/h W 0,5 C 3,1 C 0,0 km/h
03.12.2014 2,5 C 82 % 985,5 hPa 0,0 l/m 1,6 km/h W -0,2 C 2,0 C 0,9 km/h
04.12.2014 3,3 C 85 % 985,0 hPa 0,0 l/m 0,3 km/h W 0,9 C 3,3 C 0,2 km/h
05.12.2014 3,7 C 87 % 988,6 hPa 0,0 l/m 0,4 km/h NW 1,7 C 3,6 C 0,2 km/h
06.12.2014 3,9 C 87 % 991,7 hPa 0,2 l/m 1,2 km/h N-NO 1,9 C 3,6 C 0,8 km/h
07.12.2014 3,5 C 87 % 993,2 hPa 0,0 l/m 2,4 km/h N-NO 1,5 C 2,8 C 1,9 km/h
08.12.2014 3,3 C 87 % 991,0 hPa 0,6 l/m 2,9 km/h SW 1,3 C 2,6 C 2,1 km/h
09.12.2014 1,9 C 86 % 997,4 hPa 0,6 l/m 1,4 km/h SO -0,3 C 1,3 C 0,8 km/h
10.12.2014 2,5 C 84 % 995,2 hPa 0,4 l/m 1,2 km/h SO 0,1 C 2,3 C 1,1 km/h
11.12.2014 6,4 C 84 % 989,8 hPa 0,2 l/m 18,8 km/h W-SW 3,8 C -0,0 C 12,7 km/h
12.12.2014 8,6 C 70 % 983,1 hPa 0,0 l/m 16,4 km/h SW 3,4 C 3,8 C 11,1 km/h
13.12.2014 10,4 C 68 % 982,8 hPa 0,2 l/m 7,3 km/h S-SW 4,8 C 8,7 C 5,4 km/h
14.12.2014 9,4 C 85 % 986,8 hPa 0,6 l/m 3,2 km/h O-SO 7,0 C 8,5 C 1,8 km/h
15.12.2014 8,6 C 86 % 987,4 hPa 0,2 l/m 2,5 km/h W-SW 6,4 C 8,2 C 2,0 km/h
16.12.2014 5,7 C 85 % 985,5 hPa 1,2 l/m 0,0 km/h O-SO 3,5 C 5,7 C 0,0 km/h
17.12.2014 5,0 C 86 % 985,1 hPa 1,9 l/m 3,8 km/h SO 2,9 C 4,3 C 2,6 km/h
18.12.2014 10,7 C 86 % 989,5 hPa 0,4 l/m 10,3 km/h S-SW 8,5 C 8,0 C 9,0 km/h
19.12.2014 10,7 C 81 % 992,4 hPa 0,4 l/m 17,3 km/h W-SW 7,6 C 5,9 C 11,7 km/h
20.12.2014 6,6 C 80 % 998,5 hPa 0,0 l/m 12,5 km/h W-SW 3,4 C 2,2 C 8,4 km/h
21.12.2014 6,3 C 80 % 1004,1 hPa 0,2 l/m 7,0 km/h W 3,0 C 4,3 C 5,0 km/h
22.12.2014 6,6 C 71 % 1000,0 hPa 0,0 l/m 12,7 km/h W-SW 1,6 C 2,5 C 8,3 km/h
23.12.2014 6,2 C 67 % 996,0 hPa 0,2 l/m 0,7 km/h NO -0,0 C 6,1 C 0,7 km/h
24.12.2014 6,8 C 74 % 995,3 hPa 0,0 l/m 15,6 km/h W-SW 2,5 C 1,8 C 10,7 km/h
25.12.2014 6,0 C 80 % 997,7 hPa 0,2 l/m 2,8 km/h W 2,7 C 5,2 C 2,7 km/h
26.12.2014 2,3 C 86 % 999,2 hPa 0,8 l/m 0,3 km/h O-SO 0,2 C 2,3 C 0,2 km/h
27.12.2014 2,1 C 86 % 974,4 hPa 1,9 l/m 14,8 km/h SW 0,0 C -3,4 C 10,0 km/h
28.12.2014 -2,2 C 85 % 986,0 hPa 0,4 l/m 0,4 km/h N-NO -4,4 C -2,2 C 0,4 km/h
29.12.2014 -6,2 C 87 % 1004,7 hPa 0,0 l/m 0,3 km/h O-SO -8,0 C -6,3 C 0,3 km/h
30.12.2014 -1,4 C 88 % 1006,9 hPa 0,0 l/m 0,0 km/h O-SO -3,2 C -1,4 C 0,0 km/h
31.12.2014 -0,5 C 87 % 1005,8 hPa 0,0 l/m 0,0 km/h O -2,4 C -0,5 C 0,0 km/h
Min-Datum 29.12.14 23.12.14 27.12.14 20 Tage 01.12.14 - 29.12.14 27.12.14 01.12.14
Min-Zeit 05:53 14:53 16:53 - 00:53 - 05:53 18:53 00:53
Minimum -10,7 C 41 % 968,6 hPa - 0,0 km/h - -12,4 C -12,1 C 0,0 km/h
Max-Datum 23.12.14 01.12.14 30.12.14 17.12.14 11.12.14 - 18.12.14 23.12.14 11.12.14
Max-Zeit 14:53 19:53 03:53 15:53 18:53 - 18:53 14:53 18:53
Maximum 18,6 C 88 % 1008,1 hPa 1,9 l/m 45,4 km/h
W-SW
- 10,2 C 18,6 C 25,2 km/h
W-SW
Durchschnitt 4,5 C 82 % 991,5 hPa #12,0 l/m 5,1 km/h W-SW 1,7 C 3,0 C 3,6 km/h

Durchschnitt Minimum Temp.1,4 C
Durchschnitt Maximum Temp.7,4 C
www.sexauwetter.de